Time;durP1;ratioP1;P1;durP2;ratioP2;P2;SDS_P1;SDS_P2;PMS_P1;PMS_P2;Temp;Humidity;BMP_temperature;BMP_pressure;BME280_temperature;BME280_humidity;BME280_pressure;Samples;Min_cycle;Max_cycle;Signal;HPM_P1;HPM_P2
2023/02/06 00:00:22;;;;;;;64.65;7.32;;;;;;;14.36;81.03;104157.00;5062616;28;20038;-51
2023/02/06 00:02:48;;;;;;;;;;;;;;;14.99;77.98;104166.56;5062348;28;20037;-51
2023/02/06 00:05:14;;;;;;;45.27;6.97;;;;;;;14.82;77.33;104173.53;5063088;28;19992;-54
2023/02/06 00:07:39;;;;;;;50.08;5.97;;;;;;;14.86;77.91;104174.94;5060508;28;20037;-51
2023/02/06 00:10:05;;;;;;;47.63;8.77;;;;;;;14.85;78.55;104167.84;5059067;28;20037;-50
2023/02/06 00:12:31;;;;;;;51.40;6.30;;;;;;;14.19;80.15;104173.69;5062302;28;20021;-51
2023/02/06 00:14:57;;;;;;;43.30;5.33;;;;;;;14.26;80.74;104156.97;5063488;28;20040;-51
2023/02/06 00:17:22;;;;;;;39.23;6.10;;;;;;;14.18;80.54;104153.16;5061477;28;20053;-51
2023/02/06 00:19:48;;;;;;;29.05;5.53;;;;;;;14.04;82.29;104157.09;5066835;28;20033;-52
2023/02/06 00:22:13;;;;;;;43.77;5.53;;;;;;;14.94;78.74;104147.28;5064205;28;20045;-53
2023/02/06 00:24:42;;;;;;;45.80;5.70;;;;;;;14.11;81.53;104145.75;5059615;28;20128;-50
2023/02/06 00:27:07;;;;;;;42.33;5.38;;;;;;;14.67;81.27;104146.97;5062075;28;20037;-52
2023/02/06 00:29:33;;;;;;;51.63;6.70;;;;;;;14.53;80.55;104139.28;5062384;28;20049;-53
2023/02/06 00:31:59;;;;;;;33.93;5.00;;;;;;;14.54;80.54;104141.84;5062732;28;20095;-54
2023/02/06 00:34:25;;;;;;;29.30;5.40;;;;;;;14.59;80.42;104127.97;5059459;28;20289;-51
2023/02/06 00:36:51;;;;;;;39.85;4.90;;;;;;;14.22;81.57;104121.44;5059380;28;20123;-52
2023/02/06 00:39:18;;;;;;;46.37;6.37;;;;;;;14.53;81.02;104121.31;5057224;28;20029;-54
2023/02/06 00:41:43;;;;;;;34.17;6.10;;;;;;;15.08;78.93;104122.56;5060178;28;20033;-50
2023/02/06 00:44:09;;;;;;;37.40;5.90;;;;;;;14.43;81.42;104121.31;5064770;28;20029;-54
2023/02/06 00:46:35;;;;;;;44.92;4.90;;;;;;;14.60;82.74;104116.22;5060825;28;20052;-50
2023/02/06 00:49:01;;;;;;;29.70;5.43;;;;;;;14.43;81.71;104124.00;5062172;28;20033;-55
2023/02/06 00:51:27;;;;;;;44.38;5.85;;;;;;;15.10;80.14;104130.50;5063261;28;20040;-51
2023/02/06 00:53:53;;;;;;;42.67;4.82;;;;;;;14.69;80.17;104119.91;5060735;28;20036;-55
2023/02/06 00:56:18;;;;;;;38.37;6.03;;;;;;;14.80;79.88;104124.31;5061939;28;20033;-53
2023/02/06 00:58:45;;;;;;;;;;;;;;;14.94;79.33;104120.31;5061524;28;20029;-51
2023/02/06 01:01:10;;;;;;;42.37;5.40;;;;;;;14.57;80.55;104122.72;5061641;28;19935;-51
2023/02/06 01:03:37;;;;;;;42.55;7.35;;;;;;;14.74;80.18;104128.44;5061949;28;20066;-54
2023/02/06 01:06:03;;;;;;;64.63;7.13;;;;;;;14.63;79.54;104130.22;5057621;28;20033;-53
2023/02/06 01:08:29;;;;;;;30.80;4.68;;;;;;;15.21;77.94;104143.81;5062373;28;20033;-54
2023/02/06 01:10:58;;;;;;;38.33;5.38;;;;;;;14.51;79.80;104142.16;5064982;28;20033;-53
2023/02/06 01:13:24;;;;;;;55.72;7.28;;;;;;;14.56;80.67;104155.19;5056951;28;20036;-52
2023/02/06 01:15:49;;;;;;;34.25;5.20;;;;;;;14.83;80.39;104156.38;5058097;28;20096;-51
2023/02/06 01:18:14;;;;;;;48.83;5.17;;;;;;;14.66;80.89;104156.03;5057718;28;20033;-50
2023/02/06 01:20:40;;;;;;;23.73;4.17;;;;;;;15.08;78.82;104154.06;5060018;28;20056;-53
2023/02/06 01:23:05;;;;;;;40.53;4.57;;;;;;;14.67;79.04;104162.28;5057981;28;20053;-54
2023/02/06 01:25:31;;;;;;;31.92;4.68;;;;;;;15.33;76.93;104174.16;5059214;28;20033;-55
2023/02/06 01:27:57;;;;;;;36.03;5.77;;;;;;;15.29;76.25;104162.81;5061571;28;20067;-56
2023/02/06 01:30:22;;;;;;;29.50;5.20;;;;;;;15.29;76.00;104170.91;5061381;28;20100;-56
2023/02/06 01:32:48;;;;;;;34.00;4.17;;;;;;;14.71;77.99;104164.56;5065136;28;20037;-54
2023/02/06 01:35:14;;;;;;;38.10;5.10;;;;;;;14.52;80.42;104161.84;5063983;28;20088;-52
2023/02/06 01:37:40;;;;;;;41.15;6.05;;;;;;;14.46;79.71;104165.97;5064160;28;20042;-51
2023/02/06 01:40:09;;;;;;;32.92;5.65;;;;;;;14.26;80.95;104165.94;5062797;28;20067;-52
2023/02/06 01:42:36;;;;;;;32.65;5.10;;;;;;;14.20;81.65;104161.94;5066545;28;20044;-51
2023/02/06 01:45:20;;;;;;;33.35;5.07;;;;;;;14.32;81.69;104151.91;5063909;28;20100;-53
2023/02/06 01:47:46;;;;;;;31.33;4.75;;;;;;;14.37;81.53;104153.31;5062294;28;20029;-51
2023/02/06 01:50:12;;;;;;;37.57;5.87;;;;;;;15.12;79.45;104159.03;5054921;28;20056;-48
2023/02/06 01:52:38;;;;;;;28.77;4.97;;;;;;;15.15;78.20;104150.66;5063372;28;20033;-52
2023/02/06 01:55:04;;;;;;;42.97;5.35;;;;;;;15.34;77.79;104148.91;5060910;28;20056;-51
2023/02/06 01:57:32;;;;;;;30.60;5.78;;;;;;;15.64;76.14;104149.66;5066505;28;20047;-51
2023/02/06 02:00:01;;;;;;;39.58;4.97;;;;;;;15.52;76.97;104151.69;5063246;28;20037;-52
2023/02/06 02:02:41;;;;;;;39.95;5.25;;;;;;;15.54;76.56;104149.69;5062693;28;20048;-54
2023/02/06 02:05:10;;;;;;;38.90;4.82;;;;;;;15.65;76.70;104154.03;5061670;28;20041;-52
2023/02/06 02:07:43;;;;;;;41.22;5.55;;;;;;;15.53;76.11;104147.97;5059331;28;20059;-52
2023/02/06 02:10:09;;;;;;;22.13;4.82;;;;;;;15.29;77.68;104157.44;5061684;28;20033;-54
2023/02/06 02:12:35;;;;;;;26.38;4.15;;;;;;;15.22;79.08;104155.44;5061130;28;20037;-49
2023/02/06 02:15:01;;;;;;;34.50;5.10;;;;;;;15.27;77.63;104154.03;5056716;28;20032;-52
2023/02/06 02:17:27;;;;;;;34.03;5.22;;;;;;;14.88;78.58;104154.94;5061042;28;20060;-50
2023/02/06 02:20:11;;;;;;;36.50;5.10;;;;;;;14.79;79.41;104136.09;5062518;28;20036;-51
2023/02/06 02:22:53;;;;;;;46.38;4.47;;;;;;;14.88;78.43;104144.16;5061888;28;20064;-53
2023/02/06 02:25:43;;;;;;;30.45;4.82;;;;;;;14.98;78.65;104137.91;5061365;28;20029;-50
2023/02/06 02:28:24;;;;;;;38.45;5.68;;;;;;;15.15;77.96;104137.16;5059537;28;20029;-52
2023/02/06 02:31:08;;;;;;;28.95;4.75;;;;;;;15.29;78.67;104137.69;5057251;28;20033;-52
2023/02/06 02:34:11;;;;;;;30.00;4.57;;;;;;;15.11;80.12;104137.59;5053308;28;20037;-51
2023/02/06 02:36:54;;;;;;;24.33;3.75;;;;;;;14.56;81.84;104133.66;5057853;28;20047;-52
2023/02/06 02:39:36;;;;;;;37.70;4.97;;;;;;;14.14;83.97;104114.06;5056784;28;20029;-52
2023/02/06 02:42:14;;;;;;;39.95;5.68;;;;;;;13.97;85.99;104118.28;5061156;28;20037;-51
2023/02/06 02:44:52;;;;;;;42.00;6.22;;;;;;;14.36;84.65;104113.94;5062461;28;20063;-52
2023/02/06 02:47:22;;;;;;;25.63;4.60;;;;;;;14.16;85.27;104117.44;5058189;28;20061;-50
2023/02/06 02:49:48;;;;;;;45.92;6.53;;;;;;;14.69;82.95;104115.34;5058757;28;20091;-50
2023/02/06 02:52:15;;;;;;;41.50;6.82;;;;;;;15.19;80.02;104124.22;5059097;28;20033;-51
2023/02/06 02:54:41;;;;;;;29.60;4.80;;;;;;;15.02;81.36;104124.00;5063940;28;20144;-54
2023/02/06 02:57:13;;;;;;;28.17;5.93;;;;;;;14.55;82.77;104123.88;5060438;28;20034;-47
2023/02/06 02:59:44;;;;;;;35.78;5.40;;;;;;;14.86;81.03;104113.78;5060433;28;20037;-54
2023/02/06 03:02:21;;;;;;;25.85;5.05;;;;;;;14.95;79.83;104112.09;5062696;28;20036;-48
2023/02/06 03:04:52;;;;;;;30.55;5.47;;;;;;;14.92;80.57;104112.38;5064023;28;20037;-51
2023/02/06 03:07:55;;;;;;;27.98;5.35;;;;;;;14.72;81.01;104109.69;5056693;28;20047;-50
2023/02/06 03:10:47;;;;;;;42.92;6.20;;;;;;;14.72;81.07;104104.31;5051602;28;20052;-54
2023/02/06 03:13:21;;;;;;;38.90;4.85;;;;;;;14.65;81.08;104105.84;5061734;28;20029;-52
2023/02/06 03:15:53;;;;;;;44.47;6.15;;;;;;;14.36;82.10;104106.72;5058286;28;20215;-53
2023/02/06 03:19:01;;;;;;;34.50;4.55;;;;;;;14.11;82.96;104102.69;5060100;28;20053;-53
2023/02/06 03:21:28;;;;;;;24.85;4.88;;;;;;;14.44;81.83;104112.22;5043959;28;20060;-48
2023/02/06 03:23:56;;;;;;;41.85;6.95;;;;;;;14.54;80.17;104108.72;5058813;28;20059;-51
2023/02/06 03:26:27;;;;;;;38.33;5.20;;;;;;;14.36;80.60;104117.47;5063264;28;20029;-54
2023/02/06 03:28:59;;;;;;;36.47;4.95;;;;;;;14.53;79.10;104121.31;5060284;28;20029;-50
2023/02/06 03:31:30;;;;;;;35.40;4.82;;;;;;;14.29;80.02;104111.81;5060868;28;20037;-55
2023/02/06 03:34:16;;;;;;;32.90;5.18;;;;;;;14.32;78.51;104105.31;5053383;28;20099;-53
2023/02/06 03:36:42;;;;;;;47.75;6.18;;;;;;;14.28;78.53;104096.63;5056636;28;20113;-50
2023/02/06 03:39:08;;;;;;;37.60;5.95;;;;;;;14.21;78.40;104098.19;5060213;28;20041;-57
2023/02/06 03:41:36;;;;;;;46.27;4.57;;;;;;;14.21;77.92;104103.59;5062077;28;20060;-52
2023/02/06 03:44:05;;;;;;;24.95;5.00;;;;;;;14.23;77.38;104101.59;5062156;28;20274;-52
2023/02/06 03:46:33;;;;;;;42.70;8.15;;;;;;;14.01;77.12;104092.78;5063432;28;20093;-49
2023/02/06 03:49:01;;;;;;;26.30;5.38;;;;;;;14.26;76.60;104100.44;5064361;28;20070;-53
2023/02/06 03:51:32;;;;;;;28.88;5.30;;;;;;;14.33;75.90;104101.63;5062653;28;20096;-49
2023/02/06 03:54:03;;;;;;;39.83;5.22;;;;;;;14.24;75.62;104107.81;5064913;28;20043;-49
2023/02/06 03:56:38;;;;;;;35.00;5.03;;;;;;;14.00;76.11;104093.78;5060534;28;20036;-52
2023/02/06 03:59:04;;;;;;;27.95;4.15;;;;;;;13.80;77.01;104106.31;5059131;28;20053;-50
2023/02/06 04:01:31;;;;;;;;;;;;;;;14.19;75.73;104117.16;5062732;28;20072;-47
2023/02/06 04:03:57;;;;;;;32.17;6.13;;;;;;;14.32;74.70;104121.44;5062572;28;19976;-54
2023/02/06 04:06:23;;;;;;;;;;;;;;;14.29;74.50;104121.69;5059983;28;20040;-51
2023/02/06 04:08:48;;;;;;;33.77;4.83;;;;;;;14.32;73.92;104110.69;5064910;28;19921;-49
2023/02/06 04:11:14;;;;;;;25.87;4.10;;;;;;;14.29;73.72;104119.88;5062085;28;20037;-50
2023/02/06 04:13:39;;;;;;;35.35;4.60;;;;;;;13.94;74.49;104115.00;5064923;28;20058;-52
2023/02/06 04:16:06;;;;;;;23.63;3.40;;;;;;;13.71;75.55;104113.34;5058631;28;20091;-50
2023/02/06 04:18:31;;;;;;;29.95;4.63;;;;;;;13.95;74.87;104109.47;5065073;28;20033;-52
2023/02/06 04:21:07;;;;;;;28.33;3.72;;;;;;;14.13;74.45;104106.97;5064385;28;20053;-50
2023/02/06 04:23:32;;;;;;;21.15;4.07;;;;;;;13.86;76.35;104102.22;5061250;28;20063;-52
2023/02/06 04:25:57;;;;;;;34.57;4.80;;;;;;;14.23;74.34;104101.59;5060598;28;20124;-52
2023/02/06 04:28:23;;;;;;;20.90;4.00;;;;;;;14.19;74.34;104101.03;5064824;28;20100;-49
2023/02/06 04:30:49;;;;;;;32.30;4.57;;;;;;;14.54;74.67;104111.41;5060542;28;20040;-53
2023/02/06 04:33:14;;;;;;;34.25;5.20;;;;;;;14.67;73.98;104103.03;5066190;28;20092;-55
2023/02/06 04:35:39;;;;;;;26.77;4.00;;;;;;;14.29;75.58;104097.47;5062776;28;20044;-52
2023/02/06 04:38:05;;;;;;;36.33;5.23;;;;;;;14.14;77.21;104095.22;5065884;28;20037;-52
2023/02/06 04:40:31;;;;;;;43.35;5.30;;;;;;;14.16;77.29;104100.44;5060219;28;20048;-51
2023/02/06 04:42:56;;;;;;;36.17;5.30;;;;;;;13.95;79.13;104101.38;5064492;28;20029;-49
2023/02/06 04:45:22;;;;;;;27.42;4.97;;;;;;;13.79;79.01;104099.22;5062455;28;20100;-51
2023/02/06 04:47:49;;;;;;;25.77;4.43;;;;;;;13.95;78.81;104108.63;5061142;28;20045;-52
2023/02/06 04:50:15;;;;;;;34.97;5.95;;;;;;;13.95;80.35;104108.63;5056884;28;20097;-49
2023/02/06 04:52:41;;;;;;;24.15;4.65;;;;;;;14.24;78.30;104113.22;5063125;28;20025;-51
2023/02/06 04:55:07;;;;;;;28.27;5.83;;;;;;;14.04;78.76;104100.56;5061632;28;20079;-53
2023/02/06 04:57:33;;;;;;;23.38;3.78;;;;;;;13.66;81.29;104098.63;5066295;28;20029;-52
2023/02/06 04:59:58;;;;;;;23.67;4.23;;;;;;;13.99;79.87;104094.75;5062969;28;20051;-52
2023/02/06 05:02:24;;;;;;;26.17;4.47;;;;;;;14.23;78.94;104096.22;5063466;28;20289;-49
2023/02/06 05:04:50;;;;;;;46.90;5.83;;;;;;;14.17;78.72;104103.00;5063036;28;20047;-49
2023/02/06 05:07:15;;;;;;;25.35;3.80;;;;;;;13.86;80.58;104102.22;5061562;28;20106;-51
2023/02/06 05:09:40;;;;;;;24.50;4.27;;;;;;;13.52;80.90;104098.00;5064875;28;20037;-55
2023/02/06 05:12:06;;;;;;;25.80;3.47;;;;;;;13.75;81.60;104100.50;5056937;28;20033;-52
2023/02/06 05:14:31;;;;;;;24.27;4.72;;;;;;;13.94;79.82;104102.38;5067652;28;20040;-54
2023/02/06 05:16:57;;;;;;;20.53;4.27;;;;;;;13.64;80.06;104100.63;5062758;28;20126;-53
2023/02/06 05:19:22;;;;;;;13.83;2.83;;;;;;;14.11;79.58;104108.09;5062926;28;20037;-53
2023/02/06 05:21:48;;;;;;;23.23;4.38;;;;;;;14.30;78.87;104118.88;5060130;28;20045;-51
2023/02/06 05:24:14;;;;;;;19.43;3.83;;;;;;;13.88;80.86;104119.94;5060236;28;20036;-50
2023/02/06 05:26:39;;;;;;;35.60;4.13;;;;;;;13.79;80.03;104115.38;5063283;28;20029;-49
2023/02/06 05:29:04;;;;;;;16.03;3.73;;;;;;;14.20;79.36;104120.72;5067021;28;20308;-52
2023/02/06 05:31:30;;;;;;;20.27;4.30;;;;;;;14.26;78.93;104116.59;5064922;28;20092;-57
2023/02/06 05:33:56;;;;;;;25.80;5.67;;;;;;;13.75;82.54;104119.31;5056567;28;20037;-54
2023/02/06 05:36:21;;;;;;;34.37;3.90;;;;;;;14.01;80.96;104124.22;5061606;28;20277;-53
2023/02/06 05:38:47;;;;;;;17.27;4.45;;;;;;;13.56;81.56;104120.94;5061337;28;20049;-51
2023/02/06 05:41:13;;;;;;;25.63;4.53;;;;;;;13.41;82.44;104127.66;5061368;28;20067;-54
2023/02/06 05:43:40;;;;;;;38.17;4.18;;;;;;;13.75;81.00;104130.09;5061866;28;20037;-54
2023/02/06 05:46:05;;;;;;;25.50;4.53;;;;;;;14.06;79.05;104132.72;5060001;28;20102;-54
2023/02/06 05:48:33;;;;;;;18.25;4.57;;;;;;;13.70;80.98;104133.16;5060508;28;20097;-55
2023/02/06 05:50:58;;;;;;;18.70;3.70;;;;;;;13.41;82.17;104133.88;5063158;28;20353;-53
2023/02/06 05:53:24;;;;;;;32.58;4.63;;;;;;;13.40;82.68;104136.69;5061097;28;20061;-54
2023/02/06 05:55:49;;;;;;;15.50;3.00;;;;;;;13.36;81.72;104129.88;5062859;28;20063;-56
2023/02/06 05:58:16;;;;;;;23.87;5.10;;;;;;;13.17;81.26;104128.78;5060784;28;20040;-53
2023/02/06 06:00:42;;;;;;;28.17;4.80;;;;;;;13.51;80.60;104123.19;5065573;28;20017;-54
2023/02/06 06:03:07;;;;;;;22.00;3.83;;;;;;;13.70;80.03;104117.03;5063136;28;20032;-54
2023/02/06 06:05:33;;;;;;;28.27;4.77;;;;;;;13.32;80.75;104121.25;5055629;28;20270;-54
2023/02/06 06:07:58;;;;;;;20.50;6.20;;;;;;;13.24;81.42;104121.91;5059969;28;20061;-54
2023/02/06 06:10:24;;;;;;;27.50;6.53;;;;;;;13.37;81.71;104123.50;5060342;28;20267;-53
2023/02/06 06:12:49;;;;;;;21.87;5.57;;;;;;;13.08;82.37;104110.75;5058243;28;20047;-55
2023/02/06 06:15:15;;;;;;;25.33;4.60;;;;;;;13.33;80.77;104114.88;5062194;28;20105;-54
2023/02/06 06:17:40;;;;;;;23.83;4.97;;;;;;;13.24;81.04;104118.34;5061655;28;20271;-57
2023/02/06 06:20:06;;;;;;;22.80;4.00;;;;;;;13.23;81.31;104125.56;5061614;28;20108;-52
2023/02/06 06:22:32;;;;;;;25.85;4.60;;;;;;;13.52;80.57;104124.91;5062448;28;20029;-54
2023/02/06 06:24:58;;;;;;;27.13;5.43;;;;;;;13.51;82.06;104135.81;5058267;28;20064;-55
2023/02/06 06:27:24;;;;;;;27.08;5.65;;;;;;;13.20;82.75;104131.22;5061142;28;20055;-54
2023/02/06 06:29:49;;;;;;;20.48;4.90;;;;;;;13.57;81.16;104132.56;5062951;28;20179;-52
2023/02/06 06:32:15;;;;;;;38.10;4.80;;;;;;;13.72;80.40;104133.88;5063782;28;20124;-55
2023/02/06 06:34:40;;;;;;;30.43;5.40;;;;;;;13.56;81.27;104139.78;5058307;28;20029;-55
2023/02/06 06:37:06;;;;;;;26.23;4.40;;;;;;;13.84;79.34;104139.19;5061488;28;20085;-54
2023/02/06 06:39:32;;;;;;;29.05;4.68;;;;;;;13.69;80.53;104136.00;5060845;28;20045;-51
2023/02/06 06:41:57;;;;;;;31.07;4.43;;;;;;;13.78;80.18;104140.56;5059787;28;20037;-55
2023/02/06 06:44:23;;;;;;;27.90;4.47;;;;;;;13.84;80.21;104141.88;5060461;28;20024;-53
2023/02/06 06:46:48;;;;;;;36.80;5.63;;;;;;;13.52;80.05;104142.88;5060935;28;20305;-51
2023/02/06 06:49:14;;;;;;;30.50;5.53;;;;;;;13.90;79.17;104139.50;5058237;28;20097;-56
2023/02/06 06:51:39;;;;;;;23.40;4.43;;;;;;;13.75;80.65;104140.84;5064631;28;20266;-52
2023/02/06 06:54:04;;;;;;;13.63;3.83;;;;;;;14.00;79.64;104138.66;5061118;28;20037;-56
2023/02/06 06:56:30;;;;;;;33.67;7.63;;;;;;;13.95;80.16;104127.47;5056249;28;20103;-53
2023/02/06 06:58:55;;;;;;;24.63;4.60;;;;;;;13.38;81.18;104120.69;5060674;28;20044;-54
2023/02/06 07:01:21;;;;;;;31.40;5.28;;;;;;;14.01;79.39;104117.00;5058382;28;20029;-55
2023/02/06 07:03:47;;;;;;;20.15;5.32;;;;;;;13.53;80.38;104112.31;5059215;28;20076;-55
2023/02/06 07:06:13;;;;;;;23.37;6.27;;;;;;;14.13;79.59;104109.66;5056492;28;20103;-52
2023/02/06 07:08:40;;;;;;;23.73;5.20;;;;;;;14.10;79.11;104107.25;5063810;28;20066;-53
2023/02/06 07:11:07;;;;;;;;;;;;;;;13.91;79.67;104111.59;5060226;28;20110;-55
2023/02/06 07:13:32;;;;;;;18.23;4.32;;;;;;;14.51;78.26;104109.84;5058422;28;19924;-52
2023/02/06 07:15:57;;;;;;;17.60;3.97;;;;;;;14.40;78.84;104113.50;5060852;28;20238;-51
2023/02/06 07:18:23;;;;;;;29.23;6.00;;;;;;;14.38;78.29;104109.25;5064109;28;20037;-51
2023/02/06 07:20:50;;;;;;;34.53;5.10;;;;;;;14.47;78.06;104098.47;5056747;28;20044;-52
2023/02/06 07:23:16;;;;;;;23.85;4.57;;;;;;;14.51;78.22;104098.19;5063765;28;20037;-55
2023/02/06 07:25:41;;;;;;;22.02;4.68;;;;;;;14.27;79.00;104102.16;5062733;28;20097;-53
2023/02/06 07:28:07;;;;;;;15.07;3.50;;;;;;;14.51;78.22;104098.19;5065487;28;20064;-54
2023/02/06 07:30:33;;;;;;;28.00;4.28;;;;;;;14.14;79.96;104097.91;5064250;28;20029;-51
2023/02/06 07:32:59;;;;;;;20.37;4.17;;;;;;;14.42;80.09;104092.69;5066700;28;20041;-54
2023/02/06 07:35:24;;;;;;;25.47;3.93;;;;;;;14.43;79.44;104091.69;5066250;28;20345;-51
2023/02/06 07:37:53;;;;;;;31.90;5.30;;;;;;;14.63;78.70;104091.69;5064500;28;20046;-54
2023/02/06 07:40:19;;;;;;;38.35;5.40;;;;;;;14.59;78.35;104084.88;5057599;28;20037;-53
2023/02/06 07:42:45;;;;;;;23.20;7.53;;;;;;;14.25;81.11;104078.09;5060917;28;20022;-54
2023/02/06 07:45:18;;;;;;;33.30;7.03;;;;;;;13.99;82.03;104067.84;5060897;28;20053;-51
2023/02/06 07:47:44;;;;;;;33.58;6.47;;;;;;;14.55;80.38;104072.72;5059495;28;20029;-53
2023/02/06 07:50:10;;;;;;;19.47;5.37;;;;;;;14.63;80.64;104070.13;5060496;28;20044;-51
2023/02/06 07:52:36;;;;;;;22.40;4.68;;;;;;;14.54;81.07;104071.84;5061616;28;20031;-54
2023/02/06 07:55:01;;;;;;;33.67;4.93;;;;;;;14.81;80.77;104064.06;5060688;28;20094;-50
2023/02/06 07:57:26;;;;;;;20.40;4.40;;;;;;;14.53;81.25;104059.38;5066760;28;20041;-51
2023/02/06 07:59:52;;;;;;;28.67;5.00;;;;;;;15.01;79.76;104059.44;5061503;28;20045;-50
2023/02/06 08:02:17;;;;;;;20.13;5.40;;;;;;;14.94;79.40;104061.88;5062420;28;20052;-50
2023/02/06 08:04:43;;;;;;;25.70;5.28;;;;;;;14.93;80.05;104059.34;5062402;28;20040;-54
2023/02/06 08:07:13;;;;;;;30.10;4.70;;;;;;;14.94;79.89;104061.88;5064361;28;20097;-52
2023/02/06 08:09:42;;;;;;;19.85;5.43;;;;;;;14.96;81.10;104059.88;5062618;28;20037;-51
2023/02/06 08:12:08;;;;;;;27.70;4.93;;;;;;;14.82;81.29;104053.13;5063044;28;20029;-52
2023/02/06 08:14:34;;;;;;;18.35;3.90;;;;;;;14.90;80.70;104047.00;5061640;28;20052;-52
2023/02/06 08:16:59;;;;;;;29.73;6.17;;;;;;;15.16;80.98;104038.25;5064520;28;20537;-53
2023/02/06 08:19:25;;;;;;;21.50;4.30;;;;;;;15.35;79.42;104037.34;5063264;28;20033;-49
2023/02/06 08:21:50;;;;;;;30.47;5.77;;;;;;;15.23;79.30;104030.44;5064128;28;20349;-55
2023/02/06 08:24:16;;;;;;;17.70;4.78;;;;;;;15.35;79.72;104029.25;5064915;28;20029;-53
2023/02/06 08:26:42;;;;;;;30.95;4.43;;;;;;;15.23;79.75;104023.22;5063691;28;20034;-51
2023/02/06 08:29:09;;;;;;;31.80;5.78;;;;;;;15.44;78.99;104014.00;5059263;28;20041;-49
2023/02/06 08:31:37;;;;;;;16.48;5.18;;;;;;;15.24;79.67;104013.25;5054388;28;20033;-54
2023/02/06 08:34:05;;;;;;;32.60;5.40;;;;;;;15.38;79.52;104012.78;5060949;28;20029;-52
2023/02/06 08:36:31;;;;;;;22.38;4.65;;;;;;;15.43;78.59;104020.41;5057448;28;20081;-52
2023/02/06 08:38:58;;;;;;;19.43;5.20;;;;;;;15.54;79.00;104009.41;5062876;28;20043;-51
2023/02/06 08:41:29;;;;;;;28.02;6.53;;;;;;;15.47;79.01;104009.16;5060022;28;20025;-55
2023/02/06 08:43:57;;;;;;;23.42;6.40;;;;;;;15.88;78.69;104011.47;5059731;28;20029;-55
2023/02/06 08:46:27;;;;;;;21.17;4.75;;;;;;;15.86;77.68;104015.31;5058107;28;20040;-53
2023/02/06 08:49:01;;;;;;;31.00;6.40;;;;;;;16.00;77.22;104016.66;5058720;28;20129;-54
2023/02/06 08:51:27;;;;;;;34.53;5.82;;;;;;;16.03;77.76;104019.06;5058027;28;20089;-51
2023/02/06 08:53:57;;;;;;;25.80;6.10;;;;;;;15.94;77.57;104022.69;5058682;28;20048;-52
2023/02/06 08:56:23;;;;;;;23.83;5.70;;;;;;;15.99;79.86;104031.16;5060636;28;20029;-58
2023/02/06 08:58:48;;;;;;;31.02;5.65;;;;;;;16.00;78.16;104033.69;5062078;28;20072;-50
2023/02/06 09:01:15;;;;;;;25.60;5.20;;;;;;;16.21;78.78;104032.53;5057688;28;20057;-58
2023/02/06 09:03:41;;;;;;;22.40;4.75;;;;;;;16.47;77.06;104038.00;5060366;28;20044;-53
2023/02/06 09:06:06;;;;;;;28.10;5.47;;;;;;;16.05;78.18;104038.63;5061962;28;20524;-53
2023/02/06 09:08:32;;;;;;;20.67;5.23;;;;;;;16.24;79.82;104031.38;5059087;28;20187;-53
2023/02/06 09:11:14;;;;;;;20.98;4.53;;;;;;;16.06;77.50;104026.84;5060857;28;20037;-52
2023/02/06 09:13:40;;;;;;;23.10;4.18;;;;;;;16.16;78.22;104014.13;5059817;28;20045;-53
2023/02/06 09:16:06;;;;;;;19.77;5.10;;;;;;;16.26;77.73;104021.28;5064889;28;20032;-53
2023/02/06 09:18:32;;;;;;;17.45;4.55;;;;;;;16.45;76.24;104009.44;5058932;28;20060;-51
2023/02/06 09:21:10;;;;;;;21.00;4.22;;;;;;;16.69;75.58;104024.97;5058492;28;20041;-52
2023/02/06 09:23:39;;;;;;;20.73;4.57;;;;;;;16.68;75.48;104031.41;5057366;28;20037;-53
2023/02/06 09:26:05;;;;;;;31.20;6.10;;;;;;;16.65;76.00;104023.59;5059154;28;20029;-53
2023/02/06 09:28:31;;;;;;;;;;;;;;;16.97;74.59;104023.97;5061635;28;20049;-56
2023/02/06 09:30:57;;;;;;;30.00;4.93;;;;;;;17.22;73.75;104024.97;5062357;28;19924;-50
2023/02/06 09:33:24;;;;;;;10.70;3.88;;;;;;;17.60;72.96;104022.72;5057387;28;20025;-51
2023/02/06 09:35:59;;;;;;;30.27;4.75;;;;;;;17.92;73.12;104026.50;5061344;28;20051;-52
2023/02/06 09:38:25;;;;;;;19.23;4.33;;;;;;;18.21;71.68;104027.09;5058923;28;20067;-54
2023/02/06 09:40:53;;;;;;;26.80;6.47;;;;;;;18.45;71.26;104034.38;5061335;28;20341;-51
2023/02/06 09:43:20;;;;;;;20.83;5.07;;;;;;;18.48;70.78;104036.72;5063920;28;20307;-51
2023/02/06 09:45:50;;;;;;;20.25;5.00;;;;;;;18.70;70.08;104033.47;5062257;28;20305;-54
2023/02/06 09:48:23;;;;;;;19.03;4.13;;;;;;;18.65;69.70;104041.28;5059144;28;20059;-54
2023/02/06 09:51:10;;;;;;;18.10;4.50;;;;;;;18.73;69.87;104042.13;5061242;28;20275;-52
2023/02/06 09:53:53;;;;;;;21.90;5.87;;;;;;;19.20;69.04;104050.50;5061841;28;20254;-53
2023/02/06 09:56:37;;;;;;;19.40;4.33;;;;;;;19.16;68.13;104050.00;5055102;28;20306;-53
2023/02/06 09:59:28;;;;;;;21.00;4.37;;;;;;;19.57;67.91;104054.38;5055979;28;20733;-52
2023/02/06 10:02:03;;;;;;;17.90;3.47;;;;;;;19.57;67.33;104057.09;5055401;28;20282;-53
2023/02/06 10:04:50;;;;;;;22.27;4.43;;;;;;;19.94;66.38;104059.28;5057986;28;20271;-53
2023/02/06 10:07:34;;;;;;;28.17;5.13;;;;;;;20.14;65.98;104054.22;5051892;28;20270;-53
2023/02/06 10:10:14;;;;;;;26.50;4.60;;;;;;;21.04;64.09;104048.97;5061267;28;20096;-53
2023/02/06 10:12:44;;;;;;;11.37;3.67;;;;;;;21.72;61.68;104064.28;5055481;28;20266;-54
2023/02/06 10:15:12;;;;;;;22.83;4.57;;;;;;;22.02;60.37;104064.19;5053741;28;20318;-53
2023/02/06 10:17:50;;;;;;;21.37;4.97;;;;;;;22.91;58.93;104072.88;5056465;28;20290;-50
2023/02/06 10:20:32;;;;;;;25.37;5.17;;;;;;;23.87;56.71;104075.78;5056614;28;20306;-52
2023/02/06 10:23:21;;;;;;;20.50;5.10;;;;;;;24.42;54.66;104074.81;5057702;28;20313;-54
2023/02/06 10:26:02;;;;;;;24.97;5.40;;;;;;;25.24;53.27;104079.94;5056424;28;20043;-53
2023/02/06 10:28:30;;;;;;;24.73;5.27;;;;;;;26.55;50.67;104091.56;5061161;28;20033;-56
2023/02/06 10:31:18;;;;;;;26.50;6.33;;;;;;;28.35;46.73;104094.94;5057842;28;20052;-55
2023/02/06 10:34:02;;;;;;;19.23;4.53;;;;;;;28.91;44.31;104098.16;5057834;28;20067;-56
2023/02/06 10:36:56;;;;;;;23.83;5.20;;;;;;;28.96;42.93;104088.38;5061920;28;20045;-56
2023/02/06 10:39:39;;;;;;;21.17;5.13;;;;;;;29.19;42.23;104098.47;5054910;28;20029;-57
2023/02/06 10:42:37;;;;;;;15.97;4.33;;;;;;;27.90;42.49;104093.53;5056396;28;20029;-55
2023/02/06 10:45:14;;;;;;;20.63;4.00;;;;;;;28.29;41.45;104091.25;5057999;28;20051;-54
2023/02/06 10:47:43;;;;;;;29.23;6.90;;;;;;;27.54;41.62;104085.19;5058330;28;20033;-54
2023/02/06 10:50:29;;;;;;;15.47;4.27;;;;;;;27.57;40.67;104087.47;5062484;28;20029;-53
2023/02/06 10:52:58;;;;;;;21.75;4.63;;;;;;;27.63;41.33;104085.69;5063527;28;20029;-57
2023/02/06 10:55:36;;;;;;;19.70;4.27;;;;;;;26.98;40.70;104076.97;5066941;28;20087;-57
2023/02/06 10:58:11;;;;;;;21.67;4.40;;;;;;;26.22;41.25;104077.09;5060209;28;20033;-55
2023/02/06 11:00:38;;;;;;;20.83;4.13;;;;;;;25.52;42.60;104073.28;5057465;28;20034;-57
2023/02/06 11:03:09;;;;;;;23.67;4.60;;;;;;;24.97;42.89;104074.56;5063415;28;20037;-55
2023/02/06 11:05:36;;;;;;;27.10;4.27;;;;;;;25.98;41.96;104068.59;5061857;28;20030;-53
2023/02/06 11:08:36;;;;;;;20.90;4.10;;;;;;;28.06;39.12;104086.50;5060861;28;20034;-50
2023/02/06 11:11:18;;;;;;;16.73;3.83;;;;;;;28.41;38.68;104077.50;5057324;28;20037;-57
2023/02/06 11:13:47;;;;;;;16.07;3.70;;;;;;;29.53;38.15;104076.56;5066338;28;20056;-55
2023/02/06 11:16:15;;;;;;;23.23;4.60;;;;;;;29.51;36.12;104088.91;5064868;28;20032;-56
2023/02/06 11:18:44;;;;;;;23.30;3.97;;;;;;;28.96;36.42;104089.19;5063467;28;20041;-56
2023/02/06 11:21:12;;;;;;;15.63;3.50;;;;;;;28.72;35.78;104086.44;5060229;28;20025;-57
2023/02/06 11:23:40;;;;;;;19.27;3.97;;;;;;;29.36;35.57;104084.75;5059662;28;20033;-54
2023/02/06 11:26:18;;;;;;;16.17;3.30;;;;;;;28.91;35.42;104076.13;5060602;28;20044;-54
2023/02/06 11:29:07;;;;;;;17.27;3.70;;;;;;;30.09;34.23;104078.66;5060515;28;20041;-57